Montrose, CO (81401)

9:15 AM MDT on September 04, 2015 (GMT -0600)
Spring Creek | | Change Station
CLOSE
Current Station
Personal Weather Station
Location: Montrose, CO
Elevation: 6020 ft
Nearby Weather Stations

Elev 6020 ft 38.44 °N, 107.90 °W | Updated 10 seconds ago

Overcast
Overcast
61.1 °F
Feels Like 61.1 °F
N
2.0
Wind Variable Wind from SE
Gusts 6.0 mph

Today
High -- | Low -- °F
--% Chance of Precip.
Yesterday
High -- | Low -- °F
Precip. -- in
6:43 AM 7:37 PM
Waning Gibbous, 58% visible
Pressure 29.94 in
Visibility 10.0 miles
Clouds Overcast 8500 ft
Dew Point 53 °F
Humidity 74%
Rainfall 0.00 in
Snow Depth Not available.
UV 1 out of 12
Pollen 9.00 out of 12
Air Quality Not available.
Flu Activity Not available.
METAR KMTJ 041453Z AUTO 13007KT 10SM OVC085 16/09 A3014 RMK AO2 RAB10E48 SLP139 P0000 60000 T01610094 53008
Pressure 29.94 in
Visibility 10.0 miles
Clouds Overcast 8500 ft
Dew Point 53 °F
Humidity 74%
Rainfall 0.00 in
Snow Depth Not available.
UV 1 out of 12
Pollen 9.00 out of 12
Air Quality Not available.
Flu Activity Not available.
METAR KMTJ 041453Z AUTO 13007KT 10SM OVC085 16/09 A3014 RMK AO2 RAB10E48 SLP139 P0000 60000 T01610094 53008

10-Day Weather Forecast

×

Almanac

Astronomy

Sep. 04, 2015 Rise Set
Actual Time
Civil Twilight
Nautical Twilight
Astronomical Twilight
Moon
Length of Visible Light
Length of Day
Tomorrow will be .
, % of the Moon is Illuminated

Today's Extremes

State Highs State Lows

Community

WunderPhotos

Upload Photos

1,852,190 photos uploaded!

WunderBlogs® & News

Nearby

Air Quality

  Air Quality AQ Index Pollutant
Not available.

Snow Depth

Station Depth Elevation

Earthquake Activity

City Distance Mag. Time & Date
Minimum magnitude displayed is 2.5.

Coastal Water Temperatures

Place Temperature

Stations

Nearby Weather Stations

Station Location Temp. Windchill Dew Point Humidity Wind Precip. Elev Updated Type